createdAt,value
2018-05-02T00:01:55.168Z,76.10
2018-05-02T00:04:27.336Z,75.80
2018-05-02T00:06:59.550Z,75.60
2018-05-02T00:09:31.690Z,75.60
2018-05-02T00:12:03.994Z,75.70
2018-05-02T00:14:36.103Z,75.90
2018-05-02T00:17:08.199Z,76.00
2018-05-02T00:19:41.145Z,76.40
2018-05-02T00:22:13.204Z,76.40
2018-05-02T00:24:45.315Z,76.50
2018-05-02T00:27:17.391Z,76.40
2018-05-02T00:29:49.523Z,76.70
2018-05-02T00:32:21.642Z,77.00
2018-05-02T00:34:53.945Z,77.10
2018-05-02T00:37:26.064Z,77.50
2018-05-02T00:39:58.996Z,78.10
2018-05-02T00:42:31.141Z,78.10
2018-05-02T00:45:03.260Z,78.20
2018-05-02T00:47:35.367Z,78.50
2018-05-02T00:50:07.497Z,78.70
2018-05-02T00:52:39.676Z,79.10
2018-05-02T00:55:11.839Z,79.40
2018-05-02T00:57:44.111Z,79.70
2018-05-02T01:00:16.440Z,79.90
2018-05-02T01:02:48.622Z,80.10
2018-05-02T01:05:20.822Z,80.40
2018-05-02T01:07:53.168Z,80.90
2018-05-02T01:10:25.273Z,81.10
2018-05-02T01:12:57.608Z,81.20
2018-05-02T01:15:29.845Z,81.40
2018-05-02T01:18:01.956Z,81.60
2018-05-02T01:20:34.247Z,82.00
2018-05-02T01:23:06.519Z,82.30
2018-05-02T01:25:38.663Z,82.70
2018-05-02T01:28:10.771Z,82.70
2018-05-02T01:30:42.883Z,82.70
2018-05-02T01:33:15.036Z,82.70
2018-05-02T01:35:47.133Z,82.80
2018-05-02T01:38:19.387Z,82.70
2018-05-02T01:40:51.547Z,82.50
2018-05-02T01:43:23.627Z,82.60
2018-05-02T01:45:57.127Z,82.90
2018-05-02T01:48:30.408Z,83.50
2018-05-02T01:51:02.524Z,83.70
2018-05-02T01:53:35.425Z,84.10
2018-05-02T01:56:07.544Z,84.20
2018-05-02T01:58:40.383Z,83.90
2018-05-02T02:01:12.669Z,83.90
2018-05-02T02:03:45.757Z,83.80
2018-05-02T02:06:17.927Z,83.70
2018-05-02T02:08:50.104Z,83.70
2018-05-02T02:11:22.951Z,84.30
2018-05-02T02:13:55.076Z,84.30
2018-05-02T02:16:27.405Z,84.20
2018-05-02T02:19:00.385Z,83.70
2018-05-02T02:21:32.604Z,83.70
2018-05-02T02:24:04.880Z,83.40
2018-05-02T02:26:37.120Z,83.10
2018-05-02T02:29:09.300Z,82.80
2018-05-02T02:31:42.435Z,82.90
2018-05-02T02:34:14.588Z,82.90
2018-05-02T02:36:46.970Z,82.90
2018-05-02T02:39:19.280Z,83.10
2018-05-02T02:41:51.920Z,83.30
2018-05-02T02:44:24.104Z,83.40
2018-05-02T02:46:56.228Z,83.40
2018-05-02T02:49:28.375Z,83.70
2018-05-02T02:52:00.535Z,84.00
2018-05-02T02:54:32.680Z,84.30
2018-05-02T02:57:04.744Z,84.50
2018-05-02T02:59:37.592Z,85.70
2018-05-02T03:02:10.520Z,85.70
2018-05-02T03:04:42.759Z,85.70
2018-05-02T03:07:14.868Z,85.80
2018-05-02T03:09:47.136Z,86.40
2018-05-02T03:12:19.285Z,86.00
2018-05-02T03:14:51.459Z,85.70
2018-05-02T03:17:23.696Z,85.20
2018-05-02T03:19:55.802Z,84.70
2018-05-02T03:22:27.975Z,83.80
2018-05-02T03:25:00.211Z,83.60
2018-05-02T03:27:32.348Z,83.50
2018-05-02T03:30:04.517Z,83.50
2018-05-02T03:32:36.700Z,83.40
2018-05-02T03:35:08.820Z,83.50
2018-05-02T03:37:41.084Z,83.70
2018-05-02T03:40:13.460Z,84.10
2018-05-02T03:42:45.580Z,84.40
2018-05-02T03:45:17.780Z,85.10
2018-05-02T03:47:49.904Z,85.50
2018-05-02T03:50:22.076Z,85.70
2018-05-02T03:52:54.315Z,85.80
2018-05-02T03:55:26.332Z,85.80
2018-05-02T03:57:58.498Z,85.70
2018-05-02T04:00:43.064Z,85.70
2018-05-02T04:03:27.703Z,85.70
2018-05-02T04:09:04.395Z,87.30
2018-05-02T04:11:36.568Z,87.20
2018-05-02T04:14:08.693Z,87.30
2018-05-02T04:16:40.795Z,86.70
2018-05-02T04:19:12.985Z,86.10
2018-05-02T04:21:45.075Z,85.40
2018-05-02T04:24:17.194Z,84.30
2018-05-02T04:26:49.364Z,84.70
2018-05-02T04:29:21.723Z,84.40
2018-05-02T04:31:54.011Z,84.40
2018-05-02T04:34:26.199Z,84.60
2018-05-02T04:36:59.057Z,83.90
2018-05-02T04:39:31.365Z,83.90
2018-05-02T04:42:03.479Z,83.10
2018-05-02T04:44:35.773Z,82.90
2018-05-02T04:47:08.072Z,82.80
2018-05-02T04:49:40.880Z,82.50
2018-05-02T04:52:13.035Z,82.50
2018-05-02T04:54:45.251Z,82.50
2018-05-02T04:57:17.381Z,82.40
2018-05-02T04:59:49.781Z,82.50
2018-05-02T05:02:22.623Z,82.60
2018-05-02T05:04:54.708Z,82.70
2018-05-02T05:07:26.820Z,82.60
2018-05-02T05:09:59.025Z,82.50
2018-05-02T05:12:31.151Z,82.00
2018-05-02T05:15:03.335Z,81.40
2018-05-02T05:17:35.496Z,80.90
2018-05-02T05:20:07.712Z,80.30
2018-05-02T05:22:39.983Z,79.80
2018-05-02T05:25:12.071Z,79.70
2018-05-02T13:01:37.264Z,30.40
2018-05-02T13:04:09.354Z,30.10
2018-05-02T13:06:41.681Z,30.00
2018-05-02T13:09:13.998Z,30.30
2018-05-02T13:11:46.249Z,29.80
2018-05-02T13:14:18.556Z,30.90
2018-05-02T13:16:51.400Z,31.30
2018-05-02T13:19:23.622Z,31.20
2018-05-02T13:21:55.948Z,31.10
2018-05-02T13:24:28.124Z,30.10
2018-05-02T13:27:00.263Z,30.00
2018-05-02T13:29:33.856Z,30.40
2018-05-02T13:32:06.077Z,30.40
2018-05-02T13:34:38.413Z,30.10
2018-05-02T13:37:10.729Z,30.80
2018-05-02T13:39:42.906Z,30.50
2018-05-02T13:42:15.272Z,30.50
2018-05-02T13:44:47.535Z,30.30
2018-05-02T13:47:19.937Z,30.20
2018-05-02T13:49:52.316Z,30.50
2018-05-02T13:52:24.408Z,30.60
2018-05-02T13:54:57.282Z,31.40
2018-05-02T13:57:29.631Z,31.30
2018-05-02T14:00:01.981Z,30.90
2018-05-02T14:02:34.292Z,30.60
2018-05-02T14:05:07.467Z,30.40
2018-05-02T14:07:39.767Z,30.40
2018-05-02T14:10:12.109Z,30.50
2018-05-02T14:12:44.378Z,31.20
2018-05-02T14:15:16.533Z,31.00
2018-05-02T14:17:49.735Z,31.00
2018-05-02T14:20:22.036Z,30.90
2018-05-02T14:22:54.393Z,31.30
2018-05-02T14:25:26.562Z,31.10
2018-05-02T14:27:59.017Z,30.70
2018-05-02T14:30:31.501Z,30.40
2018-05-02T14:33:03.588Z,31.10
2018-05-02T14:35:36.041Z,31.10
2018-05-02T14:38:08.300Z,32.00
2018-05-02T14:40:41.425Z,31.90
2018-05-02T14:43:13.752Z,31.80
2018-05-02T14:45:47.049Z,31.40
2018-05-02T14:48:19.233Z,31.40
2018-05-02T14:50:51.545Z,31.50
2018-05-02T14:53:23.792Z,31.10
2018-05-02T14:55:56.125Z,31.50
2018-05-02T14:58:28.770Z,32.10
2018-05-02T15:01:01.782Z,30.90
2018-05-02T15:03:34.268Z,30.90
2018-05-02T15:06:06.482Z,30.60
2018-05-02T15:08:38.787Z,30.70
2018-05-02T15:11:10.986Z,29.90
2018-05-02T15:13:44.197Z,29.90
2018-05-02T15:16:16.471Z,30.50
2018-05-02T15:18:49.535Z,30.00
2018-05-02T15:21:21.723Z,29.70
2018-05-02T15:23:54.057Z,29.90
2018-05-02T15:29:25.861Z,31.30
2018-05-02T15:31:58.921Z,32.40
2018-05-02T15:34:31.318Z,32.40
2018-05-02T15:37:03.611Z,32.40
2018-05-02T15:39:36.580Z,34.50
2018-05-02T15:42:08.955Z,34.50
2018-05-02T15:44:41.151Z,34.60
2018-05-02T15:47:13.588Z,34.30
2018-05-02T15:49:45.848Z,34.40
2018-05-02T15:52:18.671Z,35.10
2018-05-02T15:54:51.051Z,34.70
2018-05-02T15:57:23.435Z,34.20
2018-05-02T15:59:56.468Z,34.80
2018-05-02T16:02:28.669Z,34.80
2018-05-02T16:05:01.743Z,34.80
2018-05-02T16:07:33.892Z,34.70
2018-05-02T16:10:06.376Z,34.60
2018-05-02T16:12:39.376Z,35.50
2018-05-02T16:15:11.717Z,35.40
2018-05-02T16:17:43.991Z,36.90
2018-05-02T16:20:16.960Z,36.00
2018-05-02T16:22:49.060Z,35.90
2018-05-02T16:25:21.544Z,36.40
2018-05-02T16:27:53.833Z,36.30
2018-05-02T16:30:26.150Z,36.40
2018-05-02T16:32:58.353Z,37.30
2018-05-02T16:35:30.491Z,36.90
2018-05-02T16:38:02.585Z,36.80
2018-05-02T16:40:34.928Z,37.00
2018-05-02T16:43:07.021Z,36.20
2018-05-02T16:45:39.150Z,36.10
2018-05-02T16:48:11.349Z,36.60
2018-05-02T16:50:45.117Z,36.90
2018-05-02T16:53:17.721Z,37.40
2018-05-02T16:55:50.259Z,37.20
2018-05-02T16:58:25.411Z,37.20
2018-05-02T17:00:57.772Z,37.50
2018-05-02T17:03:30.887Z,37.60
2018-05-02T17:06:04.234Z,37.50
2018-05-02T17:08:38.196Z,37.60
2018-05-02T17:11:11.118Z,37.70
2018-05-02T17:13:43.560Z,37.90
2018-05-02T17:16:15.833Z,38.10
2018-05-02T17:18:48.912Z,38.30
2018-05-02T17:21:21.335Z,38.20
2018-05-02T17:23:53.779Z,38.10
2018-05-02T17:26:26.028Z,38.70
2018-05-02T17:28:58.349Z,38.40
2018-05-02T17:31:30.948Z,38.80
2018-05-02T17:34:03.213Z,39.10
2018-05-02T17:36:35.581Z,38.30
2018-05-02T17:39:07.979Z,38.60
2018-05-02T17:41:40.584Z,38.80
2018-05-02T17:44:12.954Z,39.10
2018-05-02T17:46:45.842Z,38.50
2018-05-02T17:49:18.125Z,38.50
2018-05-02T17:51:50.606Z,38.40
2018-05-02T17:54:23.560Z,39.20
2018-05-02T17:56:56.487Z,39.40
2018-05-02T17:59:28.642Z,39.50
2018-05-02T18:02:00.979Z,39.80
2018-05-02T18:04:33.539Z,39.80
2018-05-02T18:07:07.620Z,39.20
2018-05-02T18:09:40.136Z,39.20
2018-05-02T18:12:12.401Z,39.10
2018-05-02T18:14:45.374Z,39.20
2018-05-02T18:17:18.600Z,39.80
2018-05-02T18:19:50.906Z,40.00
2018-05-02T18:22:23.252Z,40.10
2018-05-02T18:24:55.542Z,39.80
2018-05-02T18:27:27.858Z,40.20
2018-05-02T18:30:00.313Z,40.30
2018-05-02T18:32:32.519Z,40.30
2018-05-02T18:35:05.694Z,40.30
2018-05-02T18:37:37.966Z,40.30
2018-05-02T18:40:10.321Z,40.50
2018-05-02T18:42:42.590Z,40.40
2018-05-02T18:45:14.819Z,40.40
2018-05-02T18:47:47.164Z,40.40
2018-05-02T18:50:19.307Z,40.40
2018-05-02T18:52:51.638Z,40.30
2018-05-02T18:55:24.015Z,40.70
2018-05-02T18:57:56.532Z,40.70
2018-05-02T19:00:28.845Z,40.70
2018-05-02T19:03:01.152Z,41.00
2018-05-02T19:05:33.579Z,41.00
2018-05-02T19:08:05.770Z,41.20
2018-05-02T19:10:38.027Z,41.40
2018-05-02T19:13:10.962Z,41.60
2018-05-02T19:15:43.318Z,41.60
2018-05-02T19:18:21.763Z,42.00
2018-05-02T19:20:54.012Z,42.20
2018-05-02T19:23:27.011Z,42.70
2018-05-02T19:26:05.240Z,42.60
2018-05-02T19:28:38.135Z,42.80
2018-05-02T19:31:16.317Z,42.70
2018-05-02T19:33:51.547Z,43.00
2018-05-02T19:36:23.851Z,43.20
2018-05-02T19:38:56.880Z,44.00
2018-05-02T19:41:35.235Z,44.00
2018-05-02T19:44:07.451Z,44.40
2018-05-02T19:46:39.689Z,44.60
2018-05-02T19:49:12.169Z,45.20
2018-05-02T19:51:50.619Z,45.70
2018-05-02T19:54:22.839Z,45.80
